Time;durP1;ratioP1;P1;durP2;ratioP2;P2;SDS_P1;SDS_P2;PMS_P1;PMS_P2;Temp;Humidity;BMP_temperature;BMP_pressure;BME280_temperature;BME280_humidity;BME280_pressure;Samples;Min_cycle;Max_cycle;Signal;HPM_P1;HPM_P2
2022/09/09 00:00:14;;;;;;;5.67;1.83;;;;;;;;;;5029363;28;20200;-75
2022/09/09 00:02:43;;;;;;;8.00;2.17;;;;;;;;;;5029882;28;20212;-79
2022/09/09 00:05:15;;;;;;;4.87;1.80;;;;;;;;;;5030255;28;20212;-78
2022/09/09 00:07:45;;;;;;;4.10;1.70;;;;;;;;;;5032067;28;20794;-78
2022/09/09 00:10:21;;;;;;;7.40;2.57;;;;;;;;;;5027921;28;20219;-78
2022/09/09 00:12:52;;;;;;;3.30;1.57;;;;;;;;;;5028962;28;20529;-78
2022/09/09 00:15:21;;;;;;;10.40;1.73;;;;;;;;;;5028344;28;20210;-78
2022/09/09 00:17:51;;;;;;;3.37;1.60;;;;;;;;;;5032664;28;20224;-77
2022/09/09 00:20:23;;;;;;;3.87;1.80;;;;;;;;;;5028123;28;20203;-77
2022/09/09 00:22:54;;;;;;;3.53;1.70;;;;;;;;;;5031286;28;20207;-77
2022/09/09 00:25:25;;;;;;;5.13;1.77;;;;;;;;;;5028979;28;20199;-78
2022/09/09 00:27:52;;;;;;;6.50;1.67;;;;;;;;;;5027696;28;20229;-78
2022/09/09 00:30:22;;;;;;;6.30;1.70;;;;;;;;;;5031999;28;20776;-78
2022/09/09 00:32:50;;;;;;;6.13;1.87;;;;;;;;;;5026194;28;20222;-78
2022/09/09 00:35:18;;;;;;;4.83;2.00;;;;;;;;;;5028477;28;20602;-78
2022/09/09 00:37:49;;;;;;;5.53;1.57;;;;;;;;;;5029823;28;20219;-78
2022/09/09 00:40:21;;;;;;;3.37;2.07;;;;;;;;;;5025584;28;20191;-78
2022/09/09 00:42:53;;;;;;;6.23;1.80;;;;;;;;;;5025006;28;20616;-78
2022/09/09 00:45:30;;;;;;;3.87;1.70;;;;;;;;;;5026589;28;20203;-77
2022/09/09 00:47:57;;;;;;;4.40;1.93;;;;;;;;;;5026859;28;20604;-78
2022/09/09 00:50:33;;;;;;;6.50;2.00;;;;;;;;;;5026265;28;20609;-78
2022/09/09 00:53:07;;;;;;;5.90;1.53;;;;;;;;;;5027863;28;20570;-77
2022/09/09 00:55:40;;;;;;;2.40;1.73;;;;;;;;;;5026182;28;20690;-77
2022/09/09 00:58:08;;;;;;;4.80;1.60;;;;;;;;;;5025977;28;20238;-78
2022/09/09 01:00:39;;;;;;;3.20;1.80;;;;;;;;;;5029705;28;20792;-77
2022/09/09 01:03:20;;;;;;;6.50;1.77;;;;;;;;;;5024462;28;20203;-77
2022/09/09 01:05:50;;;;;;;4.73;1.73;;;;;;;;;;5024900;28;20203;-78
2022/09/09 01:08:27;;;;;;;9.17;1.80;;;;;;;;;;5027002;28;20675;-77
2022/09/09 01:10:56;;;;;;;4.30;1.40;;;;;;;;;;5027349;28;20263;-78
2022/09/09 01:13:25;;;;;;;6.60;1.70;;;;;;;;;;5030717;28;20207;-78
2022/09/09 01:15:54;;;;;;;3.73;1.57;;;;;;;;;;5030077;28;20204;-77
2022/09/09 01:18:23;;;;;;;3.80;1.50;;;;;;;;;;5033294;28;20227;-78
2022/09/09 01:20:55;;;;;;;7.77;1.90;;;;;;;;;;5030757;28;20212;-77
2022/09/09 01:23:32;;;;;;;2.80;1.53;;;;;;;;;;5026326;28;20204;-77
2022/09/09 01:26:11;;;;;;;5.33;1.67;;;;;;;;;;5024654;28;20205;-77
2022/09/09 01:28:39;;;;;;;4.43;1.80;;;;;;;;;;5027040;28;20234;-77
2022/09/09 01:31:08;;;;;;;10.30;1.80;;;;;;;;;;5023331;28;20219;-79
2022/09/09 01:33:35;;;;;;;4.93;1.50;;;;;;;;;;5026642;28;20219;-77
2022/09/09 01:36:04;;;;;;;3.50;1.50;;;;;;;;;;5030533;28;20204;-79
2022/09/09 01:38:32;;;;;;;5.10;1.80;;;;;;;;;;5027339;28;20730;-78
2022/09/09 01:40:59;;;;;;;4.03;1.60;;;;;;;;;;5028948;28;20208;-77
2022/09/09 01:43:28;;;;;;;6.00;1.43;;;;;;;;;;5029015;28;20298;-80
2022/09/09 01:45:57;;;;;;;3.57;1.83;;;;;;;;;;5025912;28;20208;-77
2022/09/09 01:48:25;;;;;;;3.40;1.77;;;;;;;;;;5030832;28;20227;-78
2022/09/09 01:50:52;;;;;;;6.37;1.50;;;;;;;;;;5033062;28;20215;-77
2022/09/09 01:53:20;;;;;;;2.37;1.70;;;;;;;;;;5031365;28;20219;-79
2022/09/09 01:55:50;;;;;;;4.33;1.57;;;;;;;;;;5031560;28;20544;-80
2022/09/09 01:58:23;;;;;;;5.10;1.47;;;;;;;;;;5031738;28;20231;-78
2022/09/09 02:00:58;;;;;;;2.93;1.50;;;;;;;;;;5032906;28;20204;-80
2022/09/09 02:03:26;;;;;;;8.47;2.03;;;;;;;;;;5029456;28;20234;-80
2022/09/09 02:05:58;;;;;;;5.83;2.10;;;;;;;;;;5030960;28;20207;-79
2022/09/09 02:08:27;;;;;;;6.67;1.80;;;;;;;;;;5030453;28;20224;-79
2022/09/09 02:10:56;;;;;;;8.07;1.77;;;;;;;;;;5031812;28;20215;-79
2022/09/09 02:13:24;;;;;;;2.80;1.67;;;;;;;;;;5028672;28;20420;-78
2022/09/09 02:15:54;;;;;;;5.83;2.37;;;;;;;;;;5032330;28;20195;-78
2022/09/09 02:18:25;;;;;;;6.20;1.80;;;;;;;;;;5031383;28;20218;-79
2022/09/09 02:20:53;;;;;;;6.40;1.67;;;;;;;;;;5032888;28;20199;-79
2022/09/09 02:23:21;;;;;;;5.23;2.00;;;;;;;;;;5028094;28;20208;-79
2022/09/09 02:25:51;;;;;;;3.63;2.00;;;;;;;;;;5030520;28;20295;-77
2022/09/09 02:28:20;;;;;;;3.30;1.53;;;;;;;;;;5030888;28;20479;-78
2022/09/09 02:30:48;;;;;;;6.60;2.07;;;;;;;;;;5034064;28;20228;-79
2022/09/09 02:33:16;;;;;;;5.30;1.77;;;;;;;;;;5030141;28;20269;-77
2022/09/09 02:35:44;;;;;;;4.77;1.80;;;;;;;;;;5033118;28;20564;-79
2022/09/09 02:38:13;;;;;;;5.23;1.93;;;;;;;;;;5030446;28;20763;-79
2022/09/09 02:40:40;;;;;;;7.30;2.00;;;;;;;;;;5032112;28;20199;-77
2022/09/09 02:43:07;;;;;;;5.53;1.77;;;;;;;;;;5029859;28;20234;-79
2022/09/09 02:45:38;;;;;;;3.27;1.50;;;;;;;;;;5029427;28;20208;-77
2022/09/09 02:48:07;;;;;;;5.20;1.90;;;;;;;;;;5029645;28;20215;-78
2022/09/09 02:50:43;;;;;;;8.07;1.50;;;;;;;;;;5030840;28;20204;-79
2022/09/09 02:53:16;;;;;;;3.40;1.40;;;;;;;;;;5030935;28;20202;-79
2022/09/09 02:55:47;;;;;;;4.63;1.73;;;;;;;;;;5028309;28;20204;-77
2022/09/09 02:58:16;;;;;;;5.70;1.63;;;;;;;;;;5030855;28;20703;-78
2022/09/09 03:00:44;;;;;;;4.40;1.77;;;;;;;;;;5031871;28;20781;-79
2022/09/09 03:03:16;;;;;;;1.90;1.60;;;;;;;;;;5031307;28;20199;-78
2022/09/09 03:05:44;;;;;;;5.87;1.60;;;;;;;;;;5029397;28;20261;-79
2022/09/09 03:08:12;;;;;;;6.33;1.60;;;;;;;;;;5030854;28;20227;-79
2022/09/09 03:10:40;;;;;;;2.53;1.67;;;;;;;;;;5031278;28;20211;-79
2022/09/09 03:13:07;;;;;;;5.73;1.73;;;;;;;;;;5034476;28;20200;-79
2022/09/09 03:15:35;;;;;;;4.00;2.23;;;;;;;;;;5030170;28;20261;-79
2022/09/09 03:18:02;;;;;;;2.90;1.50;;;;;;;;;;5033564;28;20223;-78
2022/09/09 03:20:30;;;;;;;3.73;1.60;;;;;;;;;;5031194;28;20669;-78
2022/09/09 03:23:02;;;;;;;9.37;1.70;;;;;;;;;;5029914;28;20204;-79
2022/09/09 03:25:30;;;;;;;8.97;1.80;;;;;;;;;;5030675;28;20230;-79
2022/09/09 03:27:57;;;;;;;5.63;1.70;;;;;;;;;;5031311;28;20246;-77
2022/09/09 03:30:25;;;;;;;7.77;1.97;;;;;;;;;;5027067;28;20207;-78
2022/09/09 03:32:52;;;;;;;3.73;1.83;;;;;;;;;;5031815;28;20232;-78
2022/09/09 03:35:19;;;;;;;3.07;1.87;;;;;;;;;;5030062;28;20215;-79
2022/09/09 03:37:46;;;;;;;6.77;1.80;;;;;;;;;;5029036;28;20223;-78
2022/09/09 03:40:15;;;;;;;3.70;1.57;;;;;;;;;;5032222;28;20199;-80
2022/09/09 03:42:42;;;;;;;5.20;1.87;;;;;;;;;;5030833;28;20695;-79
2022/09/09 03:45:14;;;;;;;5.93;1.70;;;;;;;;;;5030574;28;20219;-79
2022/09/09 03:47:41;;;;;;;2.70;1.47;;;;;;;;;;5029995;28;20215;-78
2022/09/09 03:50:10;;;;;;;6.87;1.90;;;;;;;;;;5033071;28;20328;-80
2022/09/09 03:52:37;;;;;;;6.87;2.63;;;;;;;;;;5032356;28;20690;-79
2022/09/09 03:55:05;;;;;;;5.50;1.90;;;;;;;;;;5032668;28;20589;-80
2022/09/09 03:57:34;;;;;;;2.63;1.57;;;;;;;;;;5033049;28;20234;-79
2022/09/09 04:00:03;;;;;;;10.00;1.90;;;;;;;;;;5029521;28;20291;-78
2022/09/09 04:02:30;;;;;;;5.77;1.90;;;;;;;;;;5032457;28;20301;-79
2022/09/09 04:04:57;;;;;;;6.80;3.17;;;;;;;;;;5030127;28;20203;-79
2022/09/09 04:07:24;;;;;;;7.90;1.57;;;;;;;;;;5034678;28;20223;-78
2022/09/09 04:09:53;;;;;;;2.00;1.20;;;;;;;;;;5032352;28;20211;-78
2022/09/09 04:12:20;;;;;;;4.33;1.60;;;;;;;;;;5031077;28;20220;-79
2022/09/09 04:14:49;;;;;;;2.40;1.60;;;;;;;;;;5030215;28;20211;-79
2022/09/09 04:17:17;;;;;;;3.23;1.50;;;;;;;;;;5029594;28;20227;-79
2022/09/09 04:19:44;;;;;;;3.17;1.60;;;;;;;;;;5029621;28;20206;-79
2022/09/09 04:22:11;;;;;;;2.73;2.00;;;;;;;;;;5029370;28;20833;-79
2022/09/09 04:24:38;;;;;;;7.23;1.50;;;;;;;;;;5034760;28;20195;-79
2022/09/09 04:27:05;;;;;;;5.73;1.83;;;;;;;;;;5030970;28;20219;-79
2022/09/09 04:29:33;;;;;;;6.67;1.93;;;;;;;;;;5030680;28;20202;-79
2022/09/09 04:32:01;;;;;;;5.67;1.80;;;;;;;;;;5031008;28;20716;-78
2022/09/09 04:34:30;;;;;;;5.60;1.97;;;;;;;;;;5037634;28;20199;-79
2022/09/09 04:36:57;;;;;;;4.80;2.03;;;;;;;;;;5034280;28;20710;-78
2022/09/09 04:39:26;;;;;;;6.13;2.17;;;;;;;;;;5032533;28;20265;-78
2022/09/09 04:41:53;;;;;;;3.87;1.80;;;;;;;;;;5028454;28;20200;-78
2022/09/09 04:44:23;;;;;;;7.07;2.17;;;;;;;;;;5030212;28;20662;-77
2022/09/09 04:46:51;;;;;;;5.13;2.00;;;;;;;;;;5031710;28;20204;-78
2022/09/09 04:49:19;;;;;;;4.90;1.97;;;;;;;;;;5032450;28;20214;-79
2022/09/09 04:51:46;;;;;;;7.13;2.13;;;;;;;;;;5030675;28;20733;-78
2022/09/09 04:54:13;;;;;;;4.50;2.10;;;;;;;;;;5032190;28;20625;-78
2022/09/09 04:56:41;;;;;;;7.13;2.10;;;;;;;;;;5028741;28;20291;-77
2022/09/09 04:59:09;;;;;;;8.63;2.40;;;;;;;;;;5029650;28;20201;-78
2022/09/09 05:01:37;;;;;;;4.10;2.60;;;;;;;;;;5029134;28;20366;-79
2022/09/09 05:04:04;;;;;;;5.53;2.37;;;;;;;;;;5029618;28;20210;-79
2022/09/09 05:06:32;;;;;;;6.87;2.20;;;;;;;;;;5032247;28;20269;-78
2022/09/09 05:09:00;;;;;;;3.93;2.00;;;;;;;;;;5032117;28;20227;-78
2022/09/09 05:11:28;;;;;;;6.43;2.60;;;;;;;;;;5029064;28;20250;-77
2022/09/09 05:13:56;;;;;;;4.20;2.00;;;;;;;;;;5033517;28;20662;-78
2022/09/09 05:16:23;;;;;;;7.40;2.03;;;;;;;;;;5034301;28;20207;-78
2022/09/09 05:18:53;;;;;;;3.33;2.10;;;;;;;;;;5034744;28;20280;-77
2022/09/09 05:21:21;;;;;;;4.97;2.20;;;;;;;;;;5034211;28;20210;-79
2022/09/09 05:23:50;;;;;;;4.80;2.27;;;;;;;;;;5037521;28;20732;-78
2022/09/09 05:26:18;;;;;;;5.47;2.23;;;;;;;;;;5036140;28;20556;-78
2022/09/09 05:28:46;;;;;;;12.03;2.27;;;;;;;;;;5035810;28;20219;-77
2022/09/09 05:31:13;;;;;;;3.63;1.90;;;;;;;;;;5037173;28;20213;-79
2022/09/09 05:33:45;;;;;;;3.40;1.70;;;;;;;;;;5034002;28;20199;-79
2022/09/09 05:36:13;;;;;;;10.17;2.03;;;;;;;;;;5036797;28;20211;-79
2022/09/09 05:38:41;;;;;;;6.40;2.07;;;;;;;;;;5032057;28;20232;-79
2022/09/09 05:41:10;;;;;;;4.27;1.90;;;;;;;;;;5032215;28;20208;-78
2022/09/09 05:43:38;;;;;;;5.30;2.20;;;;;;;;;;5036168;28;20199;-79
2022/09/09 05:46:05;;;;;;;8.90;2.93;;;;;;;;;;5035142;28;20271;-79
2022/09/09 05:48:34;;;;;;;4.50;2.10;;;;;;;;;;5033213;28;20231;-79
2022/09/09 05:51:01;;;;;;;9.40;2.37;;;;;;;;;;5030895;28;20200;-78
2022/09/09 05:53:32;;;;;;;11.47;2.33;;;;;;;;;;5033793;28;20247;-78
2022/09/09 05:56:03;;;;;;;15.77;2.37;;;;;;;;;;5032431;28;20207;-78
2022/09/09 05:58:31;;;;;;;7.13;2.43;;;;;;;;;;5034658;28;20656;-79
2022/09/09 06:01:02;;;;;;;11.20;2.40;;;;;;;;;;5029614;28;20207;-77
2022/09/09 06:03:29;;;;;;;15.20;2.40;;;;;;;;;;5029392;28;20203;-79
2022/09/09 06:06:00;;;;;;;9.17;2.17;;;;;;;;;;5028342;28;20203;-79
2022/09/09 06:08:27;;;;;;;15.00;2.40;;;;;;;;;;5029415;28;20612;-78
2022/09/09 06:10:55;;;;;;;8.53;2.10;;;;;;;;;;5028447;28;20210;-78
2022/09/09 06:13:22;;;;;;;9.03;2.10;;;;;;;;;;5031860;28;20222;-79
2022/09/09 06:15:53;;;;;;;8.20;2.20;;;;;;;;;;5028942;28;20214;-79
2022/09/09 06:18:21;;;;;;;11.73;2.40;;;;;;;;;;5031584;28;20777;-78
2022/09/09 06:20:55;;;;;;;7.60;1.90;;;;;;;;;;5031698;28;20206;-79
2022/09/09 06:23:22;;;;;;;4.80;2.00;;;;;;;;;;5031818;28;20565;-78
2022/09/09 06:25:50;;;;;;;12.43;1.90;;;;;;;;;;5033828;28;20204;-79
2022/09/09 06:28:18;;;;;;;6.07;1.67;;;;;;;;;;5027361;28;20246;-77
2022/09/09 06:30:45;;;;;;;13.03;1.93;;;;;;;;;;5028641;28;20712;-78
2022/09/09 06:33:13;;;;;;;7.07;1.43;;;;;;;;;;5027776;28;20215;-79
2022/09/09 06:35:40;;;;;;;4.07;1.87;;;;;;;;;;5031911;28;20210;-79
2022/09/09 06:38:08;;;;;;;6.20;1.70;;;;;;;;;;5029507;28;20222;-76
2022/09/09 06:40:36;;;;;;;8.70;1.70;;;;;;;;;;5031586;28;20204;-78
2022/09/09 06:43:04;;;;;;;8.13;1.57;;;;;;;;;;5031516;28;20262;-77
2022/09/09 06:45:36;;;;;;;4.47;1.67;;;;;;;;;;5033517;28;20208;-78
2022/09/09 06:48:03;;;;;;;5.37;1.70;;;;;;;;;;5031173;28;20219;-78
2022/09/09 06:50:32;;;;;;;3.17;1.70;;;;;;;;;;5028359;28;20221;-76
2022/09/09 06:52:59;;;;;;;5.30;1.60;;;;;;;;;;5034363;28;20220;-78
2022/09/09 06:55:26;;;;;;;7.77;2.07;;;;;;;;;;5032061;28;20270;-77
2022/09/09 06:57:58;;;;;;;6.60;2.20;;;;;;;;;;5031428;28;20749;-78
2022/09/09 07:00:25;;;;;;;10.57;1.83;;;;;;;;;;5033535;28;20231;-78
2022/09/09 07:02:52;;;;;;;5.07;1.70;;;;;;;;;;5031899;28;20262;-78
2022/09/09 07:05:21;;;;;;;6.67;2.00;;;;;;;;;;5032200;28;20203;-79
2022/09/09 07:07:50;;;;;;;5.33;1.80;;;;;;;;;;5027396;28;20231;-78
2022/09/09 07:10:18;;;;;;;7.17;1.80;;;;;;;;;;5021688;28;20313;-77
2022/09/09 07:12:52;;;;;;;5.03;1.80;;;;;;;;;;5022932;28;20224;-78
2022/09/09 07:15:22;;;;;;;8.10;1.90;;;;;;;;;;5025198;28;20632;-78
2022/09/09 07:17:50;;;;;;;9.50;1.97;;;;;;;;;;5025248;28;20227;-78
2022/09/09 07:20:20;;;;;;;8.53;1.60;;;;;;;;;;5026176;28;20218;-78
2022/09/09 07:22:49;;;;;;;8.27;1.87;;;;;;;;;;5026410;28;20270;-77
2022/09/09 07:25:18;;;;;;;9.80;2.27;;;;;;;;;;5028017;28;20301;-77
2022/09/09 07:27:46;;;;;;;7.73;1.60;;;;;;;;;;5023971;28;20227;-77
2022/09/09 07:30:13;;;;;;;12.00;2.30;;;;;;;;;;5024390;28;20204;-77
2022/09/09 07:32:41;;;;;;;5.07;1.70;;;;;;;;;;5024241;28;20592;-77
2022/09/09 07:35:08;;;;;;;10.03;1.80;;;;;;;;;;5030038;28;20207;-77
2022/09/09 07:37:38;;;;;;;7.17;2.00;;;;;;;;;;5029245;28;20219;-78
2022/09/09 07:40:06;;;;;;;9.67;1.90;;;;;;;;;;5032072;28;20231;-78
2022/09/09 07:42:35;;;;;;;5.70;1.63;;;;;;;;;;5027227;28;20277;-77
2022/09/09 07:45:03;;;;;;;5.53;1.63;;;;;;;;;;5027076;28;20659;-78
2022/09/09 07:47:30;;;;;;;6.97;1.50;;;;;;;;;;5026573;28;20235;-78
2022/09/09 07:49:58;;;;;;;4.73;1.40;;;;;;;;;;5027551;28;20212;-77
2022/09/09 07:52:26;;;;;;;3.93;1.30;;;;;;;;;;5020588;28;20230;-78
2022/09/09 07:54:53;;;;;;;11.13;1.40;;;;;;;;;;5027321;28;20571;-77
2022/09/09 07:57:22;;;;;;;4.40;0.90;;;;;;;;;;5031468;28;20223;-78
2022/09/09 07:59:52;;;;;;;3.53;1.10;;;;;;;;;;5026249;28;20307;-76
2022/09/09 08:02:19;;;;;;;5.17;1.37;;;;;;;;;;5025760;28;20246;-77
2022/09/09 08:04:46;;;;;;;3.77;0.73;;;;;;;;;;5024158;28;20744;-75
2022/09/09 08:07:13;;;;;;;5.27;1.00;;;;;;;;;;5030138;28;20232;-77
2022/09/09 08:09:40;;;;;;;6.80;0.90;;;;;;;;;;5032679;28;20204;-77
2022/09/09 08:12:08;;;;;;;4.03;0.97;;;;;;;;;;5032536;28;20243;-77
2022/09/09 08:14:36;;;;;;;5.93;0.80;;;;;;;;;;5029372;28;20663;-77
2022/09/09 08:17:04;;;;;;;3.87;1.07;;;;;;;;;;5024430;28;20224;-76
2022/09/09 08:19:33;;;;;;;4.77;0.90;;;;;;;;;;5023778;28;20204;-77
2022/09/09 08:22:02;;;;;;;3.83;1.00;;;;;;;;;;5027044;28;20736;-77
2022/09/09 08:24:29;;;;;;;6.57;0.87;;;;;;;;;;5021704;28;20710;-77
2022/09/09 08:26:57;;;;;;;4.67;0.80;;;;;;;;;;5028084;28;20322;-77
2022/09/09 08:29:25;;;;;;;4.93;1.00;;;;;;;;;;5027672;28;20683;-77
2022/09/09 08:31:54;;;;;;;5.53;1.00;;;;;;;;;;5030418;28;20234;-77
2022/09/09 08:34:26;;;;;;;7.60;0.83;;;;;;;;;;5030097;28;20307;-77
2022/09/09 08:36:57;;;;;;;5.37;1.00;;;;;;;;;;5011732;28;20204;-77
2022/09/09 08:39:24;;;;;;;4.97;1.07;;;;;;;;;;5018484;28;21553;-76
2022/09/09 08:42:13;;;;;;;3.20;0.77;;;;;;;;;;5028369;28;20204;-77
2022/09/09 08:44:57;;;;;;;4.37;1.07;;;;;;;;;;5027223;28;20246;-76
2022/09/09 08:47:28;;;;;;;9.80;1.00;;;;;;;;;;5024851;28;20223;-77
2022/09/09 08:50:04;;;;;;;5.77;0.83;;;;;;;;;;5027047;28;20218;-78
2022/09/09 08:52:32;;;;;;;5.73;0.80;;;;;;;;;;5022900;28;20207;-77
2022/09/09 08:55:05;;;;;;;4.40;0.80;;;;;;;;;;5021348;28;20215;-77
2022/09/09 08:57:33;;;;;;;6.40;0.93;;;;;;;;;;5024962;28;20234;-77
2022/09/09 09:00:00;;;;;;;4.20;0.97;;;;;;;;;;5026049;28;20210;-78
2022/09/09 09:02:31;;;;;;;3.97;0.87;;;;;;;;;;5025407;28;20650;-77
2022/09/09 09:05:09;;;;;;;4.63;0.70;;;;;;;;;;5028211;28;20208;-78
2022/09/09 09:07:43;;;;;;;7.20;0.90;;;;;;;;;;5023418;28;20254;-77
2022/09/09 09:10:16;;;;;;;2.80;0.77;;;;;;;;;;5024596;28;20203;-77
2022/09/09 09:12:47;;;;;;;4.80;0.80;;;;;;;;;;5025497;28;20223;-77
2022/09/09 09:15:18;;;;;;;3.40;0.97;;;;;;;;;;5025401;28;20732;-78
2022/09/09 09:17:45;;;;;;;4.70;0.83;;;;;;;;;;5023542;28;20230;-77
2022/09/09 09:20:16;;;;;;;5.13;0.70;;;;;;;;;;5023164;28;20208;-76
2022/09/09 09:22:48;;;;;;;4.80;0.93;;;;;;;;;;5022396;28;20810;-77
2022/09/09 09:25:18;;;;;;;4.27;0.77;;;;;;;;;;5024677;28;20196;-77
2022/09/09 09:27:50;;;;;;;7.00;1.07;;;;;;;;;;5028626;28;20225;-77
2022/09/09 09:30:19;;;;;;;6.30;0.80;;;;;;;;;;5031645;28;20654;-77
2022/09/09 09:32:52;;;;;;;5.30;0.93;;;;;;;;;;5030410;28;20877;-76
2022/09/09 09:35:21;;;;;;;5.33;0.83;;;;;;;;;;5030647;28;20196;-77
2022/09/09 09:37:50;;;;;;;12.13;1.00;;;;;;;;;;5024669;28;20726;-77
2022/09/09 09:40:18;;;;;;;4.63;0.60;;;;;;;;;;5028309;28;20231;-77
2022/09/09 09:42:51;;;;;;;6.00;0.90;;;;;;;;;;5026975;28;20973;-76
2022/09/09 09:45:23;;;;;;;4.63;0.83;;;;;;;;;;5026175;28;20295;-77
2022/09/09 09:47:59;;;;;;;5.20;0.67;;;;;;;;;;5027438;28;20702;-78
2022/09/09 09:50:27;;;;;;;3.80;0.80;;;;;;;;;;5025078;28;20230;-77
2022/09/09 09:52:56;;;;;;;5.20;0.93;;;;;;;;;;5026922;28;20608;-78
2022/09/09 09:55:24;;;;;;;4.60;0.73;;;;;;;;;;5027528;28;20206;-77
2022/09/09 09:57:53;;;;;;;4.00;0.50;;;;;;;;;;5027606;28;20609;-77
2022/09/09 10:00:20;;;;;;;7.90;0.90;;;;;;;;;;5034193;28;20582;-77
2022/09/09 10:02:48;;;;;;;8.50;0.90;;;;;;;;;;5029763;28;20204;-78
2022/09/09 10:05:17;;;;;;;6.13;0.87;;;;;;;;;;5031690;28;20204;-77
2022/09/09 10:07:45;;;;;;;2.40;0.60;;;;;;;;;;5033299;28;20231;-77
2022/09/09 10:10:15;;;;;;;4.73;0.57;;;;;;;;;;5033645;28;20204;-77
2022/09/09 10:12:47;;;;;;;5.50;0.80;;;;;;;;;;5029961;28;20272;-77
2022/09/09 10:15:24;;;;;;;4.87;0.60;;;;;;;;;;5030904;28;20200;-77
2022/09/09 10:18:04;;;;;;;6.67;0.70;;;;;;;;;;5026639;28;20305;-77
2022/09/09 10:20:39;;;;;;;4.20;0.80;;;;;;;;;;5030312;28;20207;-77
2022/09/09 10:23:14;;;;;;;3.43;0.67;;;;;;;;;;5027854;28;20207;-77
2022/09/09 10:25:50;;;;;;;5.43;0.57;;;;;;;;;;5025620;28;20689;-79
2022/09/09 10:28:26;;;;;;;4.30;0.90;;;;;;;;;;5027623;28;20227;-77
2022/09/09 10:30:59;;;;;;;9.90;1.00;;;;;;;;;;5025217;28;20273;-77
2022/09/09 10:33:33;;;;;;;10.13;1.13;;;;;;;;;;5029254;28;20269;-81
2022/09/09 10:36:02;;;;;;;5.20;1.03;;;;;;;;;;5030208;28;20200;-78
2022/09/09 10:38:32;;;;;;;5.60;0.80;;;;;;;;;;5028350;28;20231;-78
2022/09/09 10:41:17;;;;;;;2.80;0.60;;;;;;;;;;5029441;28;20295;-79
2022/09/09 10:43:53;;;;;;;5.30;0.63;;;;;;;;;;5027720;28;20311;-78
2022/09/09 10:46:26;;;;;;;3.30;0.50;;;;;;;;;;5033803;28;20200;-80
2022/09/09 10:49:03;;;;;;;4.40;1.17;;;;;;;;;;5027147;28;20235;-79
2022/09/09 10:51:34;;;;;;;1.63;0.40;;;;;;;;;;5026720;28;20211;-79
2022/09/09 10:54:22;;;;;;;4.10;1.00;;;;;;;;;;5028501;28;20604;-78
2022/09/09 10:56:56;;;;;;;3.33;0.60;;;;;;;;;;5016880;28;20222;-77
2022/09/09 10:59:28;;;;;;;9.23;0.60;;;;;;;;;;5025150;28;20207;-77
2022/09/09 11:01:59;;;;;;;3.10;0.70;;;;;;;;;;5025231;28;20201;-78
2022/09/09 11:04:30;;;;;;;3.87;0.70;;;;;;;;;;5028878;28;20659;-77
2022/09/09 11:06:57;;;;;;;3.57;0.73;;;;;;;;;;5030092;28;20238;-77
2022/09/09 11:09:27;;;;;;;2.27;0.60;;;;;;;;;;5026850;28;20218;-79
2022/09/09 11:11:57;;;;;;;3.27;0.80;;;;;;;;;;5030267;28;20208;-77
2022/09/09 11:14:28;;;;;;;6.47;0.70;;;;;;;;;;5027170;28;20447;-77
2022/09/09 11:16:58;;;;;;;3.90;0.87;;;;;;;;;;5033306;28;20212;-78
2022/09/09 11:19:28;;;;;;;3.97;0.77;;;;;;;;;;5021791;28;20207;-77
2022/09/09 11:21:57;;;;;;;4.77;0.50;;;;;;;;;;5021761;28;20212;-78
2022/09/09 11:24:26;;;;;;;5.40;0.70;;;;;;;;;;5030192;28;20286;-79
2022/09/09 11:26:57;;;;;;;2.13;0.90;;;;;;;;;;5026852;28;20589;-79
2022/09/09 11:29:36;;;;;;;3.50;0.60;;;;;;;;;;5024732;28;20204;-77
2022/09/09 11:32:10;;;;;;;1.13;0.57;;;;;;;;;;5025652;28;20220;-77
2022/09/09 11:34:49;;;;;;;3.87;0.70;;;;;;;;;;5028638;28;20277;-77
2022/09/09 11:37:26;;;;;;;5.83;0.70;;;;;;;;;;5030032;28;20223;-78
2022/09/09 11:40:08;;;;;;;4.60;1.00;;;;;;;;;;5029654;28;20757;-77
2022/09/09 11:42:36;;;;;;;3.40;0.67;;;;;;;;;;5030557;28;20216;-77
2022/09/09 11:45:11;;;;;;;3.20;0.50;;;;;;;;;;5035753;28;20204;-77
2022/09/09 11:47:38;;;;;;;4.53;0.80;;;;;;;;;;5038088;28;20222;-77
2022/09/09 11:50:09;;;;;;;2.33;0.40;;;;;;;;;;5036073;28;20220;-77
2022/09/09 11:52:42;;;;;;;4.30;0.70;;;;;;;;;;5036473;28;20642;-76
2022/09/09 11:55:13;;;;;;;4.57;0.87;;;;;;;;;;5033782;28;20492;-78
2022/09/09 11:57:43;;;;;;;3.77;0.80;;;;;;;;;;5030311;28;20309;-76
2022/09/09 12:00:25;;;;;;;8.40;1.00;;;;;;;;;;5029727;28;20203;-78
2022/09/09 12:02:52;;;;;;;2.70;0.50;;;;;;;;;;5036589;28;20693;-77
2022/09/09 12:05:21;;;;;;;2.73;0.50;;;;;;;;;;5036015;28;20223;-78
2022/09/09 12:07:53;;;;;;;3.13;0.70;;;;;;;;;;5033225;28;20278;-78
2022/09/09 12:10:22;;;;;;;7.47;1.00;;;;;;;;;;5028769;28;20663;-78
2022/09/09 12:12:51;;;;;;;5.07;0.63;;;;;;;;;;5032235;28;20725;-78
2022/09/09 12:15:20;;;;;;;2.60;0.50;;;;;;;;;;5030522;28;20228;-79
2022/09/09 12:17:49;;;;;;;2.83;0.90;;;;;;;;;;5034467;28;20228;-78
2022/09/09 12:20:17;;;;;;;2.63;0.50;;;;;;;;;;5033453;28;20203;-78
2022/09/09 12:22:49;;;;;;;6.53;0.60;;;;;;;;;;5027002;28;20208;-78
2022/09/09 12:25:21;;;;;;;2.23;0.60;;;;;;;;;;5031428;28;20227;-77
2022/09/09 12:27:53;;;;;;;2.33;0.60;;;;;;;;;;5033477;28;20220;-78
2022/09/09 12:30:23;;;;;;;3.80;0.50;;;;;;;;;;5029795;28;20206;-78
2022/09/09 12:33:00;;;;;;;5.13;0.70;;;;;;;;;;5032814;28;20246;-78
2022/09/09 12:35:29;;;;;;;8.57;0.87;;;;;;;;;;5032179;28;20215;-78
2022/09/09 12:37:58;;;;;;;5.03;0.60;;;;;;;;;;5034415;28;20694;-77
2022/09/09 12:40:27;;;;;;;3.43;0.50;;;;;;;;;;5030497;28;20203;-77
2022/09/09 12:42:55;;;;;;;4.67;0.50;;;;;;;;;;5032359;28;20207;-78
2022/09/09 12:45:25;;;;;;;3.63;0.80;;;;;;;;;;5029759;28;20207;-78
2022/09/09 12:47:54;;;;;;;3.40;0.70;;;;;;;;;;5033070;28;20293;-76
2022/09/09 12:50:22;;;;;;;2.63;0.40;;;;;;;;;;5033741;28;20226;-78
2022/09/09 12:52:51;;;;;;;6.20;0.43;;;;;;;;;;5031362;28;20564;-77
2022/09/09 12:55:21;;;;;;;2.83;0.40;;;;;;;;;;5033031;28;20228;-78
2022/09/09 12:57:50;;;;;;;4.27;0.47;;;;;;;;;;5032975;28;20238;-78
2022/09/09 13:00:18;;;;;;;1.90;0.50;;;;;;;;;;5030089;28;20637;-78
2022/09/09 13:02:51;;;;;;;2.63;0.67;;;;;;;;;;5027253;28;20668;-78
2022/09/09 13:05:20;;;;;;;3.40;0.50;;;;;;;;;;5027302;28;20199;-77
2022/09/09 13:07:48;;;;;;;2.37;0.50;;;;;;;;;;5023691;28;20216;-77
2022/09/09 13:10:16;;;;;;;1.90;0.40;;;;;;;;;;5019690;28;20733;-80
2022/09/09 13:12:44;;;;;;;1.70;0.40;;;;;;;;;;5026465;28;20204;-76
2022/09/09 13:15:15;;;;;;;4.47;0.80;;;;;;;;;;5025768;28;20238;-77
2022/09/09 13:17:42;;;;;;;2.50;0.60;;;;;;;;;;5023034;28;20223;-77
2022/09/09 13:20:17;;;;;;;3.53;0.70;;;;;;;;;;5027136;28;20587;-78
2022/09/09 13:22:45;;;;;;;1.77;0.50;;;;;;;;;;5027345;28;20202;-76
2022/09/09 13:25:19;;;;;;;3.57;0.60;;;;;;;;;;5024964;28;20200;-77
2022/09/09 13:27:53;;;;;;;4.17;0.60;;;;;;;;;;5024988;28;20594;-77
2022/09/09 13:30:23;;;;;;;1.47;0.40;;;;;;;;;;5025721;28;20211;-77
2022/09/09 13:33:01;;;;;;;2.93;0.70;;;;;;;;;;5028058;28;20211;-78
2022/09/09 13:35:30;;;;;;;2.77;0.50;;;;;;;;;;5029236;28;20234;-78
2022/09/09 13:37:57;;;;;;;2.87;0.80;;;;;;;;;;5036030;28;20596;-77
2022/09/09 13:40:25;;;;;;;2.00;0.50;;;;;;;;;;5035766;28;20246;-77
2022/09/09 13:42:53;;;;;;;3.30;0.60;;;;;;;;;;5033211;28;20199;-77
2022/09/09 13:45:22;;;;;;;3.87;0.80;;;;;;;;;;5033353;28;20200;-77
2022/09/09 13:47:52;;;;;;;2.27;0.60;;;;;;;;;;5034555;28;20222;-76
2022/09/09 13:50:22;;;;;;;2.87;0.53;;;;;;;;;;5038547;28;20215;-79
2022/09/09 13:52:53;;;;;;;4.80;0.50;;;;;;;;;;5032823;28;20204;-77
2022/09/09 13:55:21;;;;;;;4.93;0.53;;;;;;;;;;5033663;28;20220;-78
2022/09/09 13:57:52;;;;;;;3.90;0.50;;;;;;;;;;5035444;28;20224;-77
2022/09/09 14:00:20;;;;;;;2.73;0.67;;;;;;;;;;5032670;28;20204;-76
2022/09/09 14:02:47;;;;;;;2.00;0.47;;;;;;;;;;5036064;28;20230;-77
2022/09/09 14:05:15;;;;;;;5.20;0.60;;;;;;;;;;5030341;28;20682;-76
2022/09/09 14:07:43;;;;;;;2.87;0.50;;;;;;;;;;5034677;28;20277;-77
2022/09/09 14:10:12;;;;;;;4.57;0.50;;;;;;;;;;5033527;28;20217;-77
2022/09/09 14:12:39;;;;;;;2.97;0.40;;;;;;;;;;5035012;28;20203;-78
2022/09/09 14:15:07;;;;;;;3.83;0.50;;;;;;;;;;5036386;28;20227;-77
2022/09/09 14:17:35;;;;;;;3.67;0.50;;;;;;;;;;5034205;28;20226;-78
2022/09/09 14:20:03;;;;;;;2.67;0.60;;;;;;;;;;5032329;28;20208;-76
2022/09/09 14:22:30;;;;;;;5.27;0.90;;;;;;;;;;5030992;28;20204;-77
2022/09/09 14:24:58;;;;;;;2.67;0.43;;;;;;;;;;5032303;28;20774;-77
2022/09/09 14:27:27;;;;;;;1.50;0.60;;;;;;;;;;5036252;28;20274;-78
2022/09/09 14:29:54;;;;;;;3.30;0.80;;;;;;;;;;5036301;28;20207;-77
2022/09/09 14:32:21;;;;;;;3.77;0.60;;;;;;;;;;5035662;28;20214;-77
2022/09/09 14:34:49;;;;;;;1.33;0.40;;;;;;;;;;5033701;28;20284;-77
2022/09/09 14:37:17;;;;;;;1.10;0.37;;;;;;;;;;5036289;28;20231;-76
2022/09/09 14:39:46;;;;;;;1.87;0.47;;;;;;;;;;5037211;28;20206;-76
2022/09/09 14:42:13;;;;;;;1.87;0.50;;;;;;;;;;5035156;28;20211;-77
2022/09/09 14:44:42;;;;;;;4.00;0.67;;;;;;;;;;5034691;28;20556;-77
2022/09/09 14:47:10;;;;;;;2.17;0.50;;;;;;;;;;5031273;28;20786;-76
2022/09/09 14:49:38;;;;;;;4.43;0.90;;;;;;;;;;5038431;28;20215;-76
2022/09/09 14:52:06;;;;;;;5.87;0.60;;;;;;;;;;5032648;28;20641;-78
2022/09/09 14:54:33;;;;;;;1.47;0.47;;;;;;;;;;5028255;28;20227;-77
2022/09/09 14:57:00;;;;;;;2.47;0.73;;;;;;;;;;5030202;28;20603;-76